Time;durP1;ratioP1;P1;durP2;ratioP2;P2;SDS_P1;SDS_P2;PMS_P1;PMS_P2;Temp;Humidity;BMP_temperature;BMP_pressure;BME280_temperature;BME280_humidity;BME280_pressure;Samples;Min_cycle;Max_cycle;Signal;HPM_P1;HPM_P2
2022/10/09 00:01:21;;;;;;;13.68;4.97;;;15.20;99.90;;;;;;5015886;28;20088;-74
2022/10/09 00:03:48;;;;;;;7.82;5.05;;;15.20;99.90;;;;;;5016139;28;20459;-74
2022/10/09 00:06:17;;;;;;;8.30;4.47;;;15.20;99.90;;;;;;4998469;28;20584;-74
2022/10/09 00:08:43;;;;;;;9.85;5.40;;;15.10;99.90;;;;;;4998378;28;20389;-75
2022/10/09 00:11:12;;;;;;;8.63;5.32;;;15.10;99.90;;;;;;5016016;28;20033;-74
2022/10/09 00:13:37;;;;;;;6.75;4.20;;;15.10;99.90;;;;;;5015658;28;20532;-74
2022/10/09 00:16:05;;;;;;;9.35;5.47;;;15.10;99.90;;;;;;4998453;28;20030;-74
2022/10/09 00:18:32;;;;;;;8.15;4.72;;;15.10;99.90;;;;;;5015542;28;20045;-74
2022/10/09 00:20:57;;;;;;;9.05;5.13;;;15.10;99.90;;;;;;4998225;28;20026;-74
2022/10/09 00:23:23;;;;;;;5.57;4.18;;;15.00;99.90;;;;;;4998272;28;20378;-74
2022/10/09 00:25:55;;;;;;;6.88;4.50;;;15.00;99.90;;;;;;5015694;28;20036;-74
2022/10/09 00:28:22;;;;;;;11.35;4.43;;;15.00;99.90;;;;;;5015817;28;20029;-74
2022/10/09 00:30:47;;;;;;;10.60;4.32;;;15.00;99.90;;;;;;5015582;28;20029;-74
2022/10/09 00:33:13;;;;;;;5.28;3.53;;;14.90;99.90;;;;;;5015359;28;20382;-74
2022/10/09 00:35:40;;;;;;;5.90;3.42;;;14.90;99.90;;;;;;5015324;28;20410;-74
2022/10/09 00:38:06;;;;;;;7.15;4.25;;;14.90;99.90;;;;;;4997850;28;20492;-74
2022/10/09 00:40:33;;;;;;;7.65;3.85;;;14.80;99.90;;;;;;5015381;28;20038;-74
2022/10/09 00:42:59;;;;;;;6.97;4.15;;;14.80;99.90;;;;;;5015430;28;20036;-74
2022/10/09 00:45:26;;;;;;;8.43;3.83;;;14.80;99.90;;;;;;4997963;28;20026;-74
2022/10/09 00:48:11;;;;;;;5.78;4.22;;;14.70;99.90;;;;;;4997971;28;20022;-74
2022/10/09 00:50:56;;;;;;;6.53;3.75;;;14.70;99.90;;;;;;4997926;28;20022;-74
2022/10/09 00:53:25;;;;;;;6.47;3.88;;;14.70;99.90;;;;;;4997655;28;20466;-74
2022/10/09 00:55:52;;;;;;;;;;;14.60;99.90;;;;;;5015554;28;20030;-74
2022/10/09 00:58:18;;;;;;;8.13;4.05;;;14.60;99.90;;;;;;4997352;28;19905;-74
2022/10/09 01:00:43;;;;;;;6.85;3.85;;;14.50;99.90;;;;;;4997416;28;20028;-74
2022/10/09 01:03:09;;;;;;;7.05;3.92;;;14.50;99.90;;;;;;5015071;28;20072;-74
2022/10/09 01:06:07;;;;;;;7.20;3.95;;;14.40;99.90;;;;;;5014638;28;20026;-74
2022/10/09 01:09:06;;;;;;;9.20;4.20;;;14.40;99.90;;;;;;4998046;28;20032;-74
2022/10/09 01:11:52;;;;;;;6.72;3.95;;;14.40;99.90;;;;;;5014990;28;20152;-74
2022/10/09 01:14:27;;;;;;;10.77;4.28;;;14.40;99.90;;;;;;4997625;28;20474;-74
2022/10/09 01:17:22;;;;;;;7.55;4.22;;;14.30;99.90;;;;;;5014429;28;20494;-74
2022/10/09 01:20:30;;;;;;;7.05;3.95;;;14.30;99.90;;;;;;4957189;28;20426;-74
2022/10/09 01:23:09;;;;;;;8.07;4.10;;;14.20;99.90;;;;;;4997124;28;20469;-74
2022/10/09 01:25:56;;;;;;;7.30;4.65;;;14.20;99.90;;;;;;4997141;28;20072;-74
2022/10/09 01:28:24;;;;;;;6.95;4.35;;;14.20;99.90;;;;;;4997232;28;20030;-74
2022/10/09 01:30:50;;;;;;;8.02;4.10;;;14.20;99.90;;;;;;5014857;28;20034;-74
2022/10/09 01:33:17;;;;;;;6.53;3.92;;;14.20;99.90;;;;;;5014447;28;20092;-74
2022/10/09 01:35:45;;;;;;;5.72;3.90;;;14.10;99.90;;;;;;4996824;28;20026;-74
2022/10/09 01:38:11;;;;;;;11.15;4.28;;;14.10;99.90;;;;;;5014428;28;20033;-74
2022/10/09 01:40:38;;;;;;;7.90;3.83;;;14.00;99.90;;;;;;4996590;28;20030;-74
2022/10/09 01:43:04;;;;;;;7.60;3.80;;;14.00;99.90;;;;;;5014418;28;20026;-74
2022/10/09 01:45:40;;;;;;;7.22;3.50;;;14.00;99.90;;;;;;5014401;28;20021;-74
2022/10/09 01:48:10;;;;;;;5.45;3.42;;;13.90;99.90;;;;;;5013600;28;20466;-75
2022/10/09 01:50:42;;;;;;;4.88;3.13;;;13.90;99.90;;;;;;4996713;28;20037;-74
2022/10/09 01:53:13;;;;;;;6.70;3.58;;;13.80;99.90;;;;;;5014290;28;20034;-75
2022/10/09 01:56:11;;;;;;;5.07;2.97;;;13.80;99.90;;;;;;5014003;28;20417;-74
2022/10/09 01:58:44;;;;;;;2.72;2.38;;;13.80;99.90;;;;;;4960043;28;20081;-74
2022/10/09 02:01:14;;;;;;;5.43;2.83;;;13.70;99.90;;;;;;4997163;28;20030;-74
2022/10/09 02:03:43;;;;;;;9.13;2.97;;;13.70;99.90;;;;;;5013796;28;20026;-74
2022/10/09 02:06:11;;;;;;;4.28;2.60;;;13.70;99.90;;;;;;5014446;28;20079;-75
2022/10/09 02:08:38;;;;;;;7.07;2.50;;;13.60;99.90;;;;;;4996641;28;20034;-75
2022/10/09 02:11:05;;;;;;;5.25;2.30;;;13.60;99.90;;;;;;5014255;28;20108;-75
2022/10/09 02:13:32;;;;;;;4.50;2.50;;;13.50;99.90;;;;;;4996463;28;20026;-75
2022/10/09 02:16:23;;;;;;;4.60;2.88;;;13.50;99.90;;;;;;5014144;28;20026;-75
2022/10/09 02:19:07;;;;;;;6.00;2.33;;;13.50;99.90;;;;;;4994591;28;20035;-75
2022/10/09 02:21:50;;;;;;;4.35;2.40;;;13.40;99.90;;;;;;4977477;28;20081;-75
2022/10/09 02:24:20;;;;;;;6.50;2.53;;;13.30;99.90;;;;;;4994876;28;20093;-75
2022/10/09 02:26:46;;;;;;;6.13;2.13;;;13.30;99.90;;;;;;4994361;28;20030;-74
2022/10/09 02:29:13;;;;;;;4.45;2.63;;;13.30;99.90;;;;;;4994612;28;20036;-74
2022/10/09 02:31:40;;;;;;;6.93;3.10;;;13.20;99.90;;;;;;4994633;28;20023;-75
2022/10/09 02:34:08;;;;;;;4.68;2.20;;;13.20;99.90;;;;;;4976829;28;20082;-75
2022/10/09 02:36:35;;;;;;;6.57;2.45;;;13.20;99.90;;;;;;4993929;28;20087;-74
2022/10/09 02:39:02;;;;;;;5.47;2.30;;;13.10;99.90;;;;;;4994141;28;20040;-75
2022/10/09 02:41:28;;;;;;;6.60;2.42;;;13.00;99.90;;;;;;4994122;28;20109;-74
2022/10/09 02:43:53;;;;;;;5.28;2.25;;;13.00;99.90;;;;;;4994187;28;20061;-75
2022/10/09 02:46:19;;;;;;;2.85;1.98;;;13.00;99.90;;;;;;4976816;28;20455;-74
2022/10/09 02:48:45;;;;;;;2.00;1.85;;;12.90;99.90;;;;;;4993852;28;20113;-74
2022/10/09 02:51:11;;;;;;;6.10;2.38;;;12.90;99.90;;;;;;4993936;28;20069;-74
2022/10/09 02:53:37;;;;;;;6.85;2.70;;;12.80;99.90;;;;;;4976712;28;20022;-75
2022/10/09 02:56:02;;;;;;;3.47;2.35;;;12.80;99.90;;;;;;4994155;28;20451;-74
2022/10/09 02:58:32;;;;;;;8.38;2.60;;;12.70;99.90;;;;;;4993902;28;20053;-74
2022/10/09 03:00:58;;;;;;;6.00;2.17;;;12.60;99.90;;;;;;4996380;28;20509;-75
2022/10/09 03:03:24;;;;;;;3.88;1.95;;;12.50;99.90;;;;;;4997691;28;20030;-75
2022/10/09 03:06:09;;;;;;;8.38;2.60;;;12.40;99.90;;;;;;4980274;28;20382;-74
2022/10/09 03:08:40;;;;;;;6.40;2.00;;;12.40;99.90;;;;;;4997703;28;20110;-75
2022/10/09 03:11:07;;;;;;;2.25;1.77;;;12.30;99.90;;;;;;4980937;28;20420;-75
2022/10/09 03:13:34;;;;;;;4.22;2.38;;;12.20;99.90;;;;;;4998292;28;20050;-75
2022/10/09 03:16:14;;;;;;;5.50;2.63;;;12.10;99.90;;;;;;4997852;28;20089;-75
2022/10/09 03:18:41;;;;;;;3.58;2.10;;;12.10;99.90;;;;;;4980077;28;20479;-75
2022/10/09 03:21:09;;;;;;;5.80;2.20;;;11.90;99.90;;;;;;4997615;28;20530;-74
2022/10/09 03:23:35;;;;;;;7.05;2.58;;;11.90;99.90;;;;;;4997041;28;20479;-75
2022/10/09 03:26:04;;;;;;;4.05;1.98;;;11.80;99.90;;;;;;4996985;28;20029;-75
2022/10/09 03:28:29;;;;;;;2.95;1.90;;;11.80;99.90;;;;;;4997600;28;20088;-74
2022/10/09 03:30:56;;;;;;;3.90;2.40;;;11.70;99.90;;;;;;4979689;28;20034;-75
2022/10/09 03:33:21;;;;;;;4.97;2.08;;;11.60;99.90;;;;;;4996859;28;20027;-75
2022/10/09 03:35:48;;;;;;;4.22;2.08;;;11.50;99.90;;;;;;4980132;28;20510;-74
2022/10/09 03:38:15;;;;;;;5.05;1.92;;;11.30;99.90;;;;;;4996664;28;20418;-75
2022/10/09 03:40:41;;;;;;;5.15;2.22;;;11.30;99.90;;;;;;4979466;28;20073;-75
2022/10/09 03:43:07;;;;;;;6.95;2.40;;;11.10;99.90;;;;;;4979514;28;20081;-75
2022/10/09 03:45:33;;;;;;;6.38;2.22;;;11.00;99.90;;;;;;4996587;28;20483;-75
2022/10/09 03:47:58;;;;;;;4.28;2.53;;;11.00;99.90;;;;;;4997151;28;20053;-75
2022/10/09 03:50:24;;;;;;;5.55;2.20;;;10.90;99.90;;;;;;4996812;28;20069;-74
2022/10/09 03:52:50;;;;;;;6.53;2.80;;;10.80;99.90;;;;;;4996806;28;20027;-75
2022/10/09 03:55:15;;;;;;;5.25;2.78;;;10.80;99.90;;;;;;4996752;28;20431;-74
2022/10/09 03:57:41;;;;;;;5.10;2.95;;;10.70;99.90;;;;;;4979562;28;20030;-75
2022/10/09 04:00:09;;;;;;;5.72;3.00;;;10.70;99.90;;;;;;4979852;28;20057;-75
2022/10/09 04:02:34;;;;;;;4.97;3.05;;;10.60;99.90;;;;;;4980243;28;20034;-75
2022/10/09 04:05:00;;;;;;;7.25;3.45;;;10.50;99.90;;;;;;4980072;28;20031;-75
2022/10/09 04:07:26;;;;;;;4.47;2.70;;;10.50;99.90;;;;;;4980094;28;20022;-74
2022/10/09 04:09:51;;;;;;;3.72;2.60;;;10.40;99.90;;;;;;4997545;28;20035;-75
2022/10/09 04:12:17;;;;;;;6.97;2.70;;;10.40;99.90;;;;;;4996998;28;20077;-75
2022/10/09 04:14:43;;;;;;;4.90;2.60;;;10.30;99.90;;;;;;4996976;28;20026;-74
2022/10/09 04:17:08;;;;;;;15.30;3.30;;;10.30;99.90;;;;;;5005053;28;20046;-75
2022/10/09 04:19:35;;;;;;;4.10;2.83;;;10.30;99.90;;;;;;4998995;28;20038;-75
2022/10/09 04:22:00;;;;;;;4.43;2.72;;;10.30;99.90;;;;;;4998951;28;20029;-74
2022/10/09 04:24:26;;;;;;;11.98;4.68;;;10.30;99.90;;;;;;5016461;28;20080;-74
2022/10/09 04:26:52;;;;;;;7.28;2.70;;;10.20;99.90;;;;;;5016194;28;20029;-74
2022/10/09 04:29:17;;;;;;;5.05;2.78;;;10.20;99.90;;;;;;4998637;28;20030;-74
2022/10/09 04:31:43;;;;;;;8.20;3.88;;;10.10;99.90;;;;;;5015899;28;20493;-74
2022/10/09 04:34:08;;;;;;;8.07;3.47;;;10.00;99.90;;;;;;4998859;28;20025;-74
2022/10/09 04:36:34;;;;;;;7.40;3.17;;;10.00;99.90;;;;;;5016189;28;20033;-74
2022/10/09 04:39:00;;;;;;;4.85;2.60;;;10.00;99.90;;;;;;4999080;28;20044;-74
2022/10/09 04:41:25;;;;;;;4.80;3.03;;;9.90;99.90;;;;;;4999892;28;20116;-74
2022/10/09 04:43:55;;;;;;;8.55;2.75;;;9.80;99.90;;;;;;5017383;28;20077;-74
2022/10/09 04:46:22;;;;;;;6.65;2.78;;;9.70;99.90;;;;;;5017498;28;20065;-74
2022/10/09 04:48:48;;;;;;;12.93;3.20;;;9.70;99.90;;;;;;5016574;28;20026;-74
2022/10/09 04:51:15;;;;;;;4.78;2.85;;;9.60;99.90;;;;;;5016618;28;20026;-74
2022/10/09 04:53:42;;;;;;;7.53;3.05;;;9.60;99.90;;;;;;5016429;28;20440;-74
2022/10/09 04:56:13;;;;;;;4.50;2.80;;;9.60;99.90;;;;;;5016448;28;20429;-74
2022/10/09 04:58:40;;;;;;;6.80;3.03;;;9.50;99.90;;;;;;5016381;28;20039;-74
2022/10/09 05:01:13;;;;;;;8.27;2.92;;;9.60;99.90;;;;;;5016600;28;20061;-74
2022/10/09 05:03:39;;;;;;;5.53;2.92;;;9.50;99.90;;;;;;4998900;28;20022;-74
2022/10/09 05:06:07;;;;;;;6.68;2.85;;;9.50;99.90;;;;;;4998933;28;20030;-74
2022/10/09 05:08:33;;;;;;;4.72;3.38;;;9.50;99.90;;;;;;5016551;28;20382;-74
2022/10/09 05:11:05;;;;;;;5.70;3.22;;;9.40;99.90;;;;;;4997964;28;20056;-74
2022/10/09 05:13:33;;;;;;;4.32;2.80;;;9.40;99.90;;;;;;5015899;28;20030;-74
2022/10/09 05:16:20;;;;;;;4.28;2.85;;;9.40;99.90;;;;;;4997677;28;20036;-75
2022/10/09 05:18:52;;;;;;;5.50;3.20;;;9.30;99.90;;;;;;4995947;28;20038;-75
2022/10/09 05:21:18;;;;;;;7.10;3.42;;;9.30;99.90;;;;;;4978051;28;20117;-75
2022/10/09 05:23:44;;;;;;;9.85;3.70;;;9.30;99.90;;;;;;4977593;28;20069;-74
2022/10/09 05:26:12;;;;;;;4.75;3.15;;;9.20;99.90;;;;;;4977966;28;20022;-74
2022/10/09 05:28:38;;;;;;;6.55;3.05;;;9.20;99.90;;;;;;4995492;28;20030;-74
2022/10/09 05:31:06;;;;;;;10.65;3.38;;;9.10;99.90;;;;;;4995600;28;20026;-74
2022/10/09 05:33:32;;;;;;;5.95;3.17;;;9.10;99.90;;;;;;4977518;28;20026;-74
2022/10/09 05:36:04;;;;;;;6.40;3.45;;;9.20;99.90;;;;;;4977970;28;20034;-74
2022/10/09 05:38:31;;;;;;;7.03;3.00;;;9.10;99.90;;;;;;4977548;28;20030;-74
2022/10/09 05:40:59;;;;;;;7.97;3.22;;;9.10;99.90;;;;;;4977750;28;20032;-75
2022/10/09 05:43:36;;;;;;;6.72;3.35;;;9.10;99.90;;;;;;4995257;28;20022;-74
2022/10/09 05:46:11;;;;;;;7.50;3.50;;;9.10;99.90;;;;;;4977660;28;20505;-75
2022/10/09 05:48:38;;;;;;;9.98;3.38;;;9.10;99.90;;;;;;4978020;28;20418;-74
2022/10/09 05:51:12;;;;;;;4.72;2.92;;;9.10;99.90;;;;;;4977441;28;20033;-74
2022/10/09 05:53:39;;;;;;;8.38;4.15;;;9.10;99.90;;;;;;4995029;28;20027;-74
2022/10/09 05:56:26;;;;;;;5.07;2.97;;;9.20;99.90;;;;;;4977532;28;20053;-74
2022/10/09 05:59:01;;;;;;;6.95;3.70;;;9.20;99.90;;;;;;4977465;28;20081;-74
2022/10/09 06:01:32;;;;;;;9.35;3.38;;;9.30;99.90;;;;;;4994752;28;20485;-74
2022/10/09 06:03:59;;;;;;;10.05;3.25;;;9.30;99.90;;;;;;4977543;28;20467;-75
2022/10/09 06:06:29;;;;;;;5.22;2.60;;;9.30;99.90;;;;;;4994647;28;20387;-75
2022/10/09 06:08:55;;;;;;;4.85;3.00;;;9.40;99.90;;;;;;4977510;28;20039;-77
2022/10/09 06:11:27;;;;;;;8.18;3.35;;;9.30;99.90;;;;;;4977850;28;20387;-76
2022/10/09 06:13:54;;;;;;;8.48;3.15;;;9.30;99.90;;;;;;4978172;28;20030;-75
2022/10/09 06:16:24;;;;;;;4.57;3.25;;;9.40;99.90;;;;;;4996494;28;20422;-74
2022/10/09 06:18:52;;;;;;;6.97;3.42;;;9.50;99.90;;;;;;5014529;28;20030;-73
2022/10/09 06:21:18;;;;;;;8.50;3.20;;;9.70;99.90;;;;;;4996407;28;20085;-74
2022/10/09 06:23:47;;;;;;;6.70;2.90;;;10.00;99.90;;;;;;5013690;28;20026;-73
2022/10/09 06:26:13;;;;;;;6.18;3.35;;;10.20;99.90;;;;;;5014594;28;20037;-74
2022/10/09 06:28:39;;;;;;;3.53;2.45;;;10.40;99.90;;;;;;4996940;28;20022;-72
2022/10/09 06:31:07;;;;;;;12.68;3.17;;;10.70;99.90;;;;;;4996463;28;20034;-72
2022/10/09 06:33:35;;;;;;;3.93;2.87;;;10.90;99.90;;;;;;5014041;28;20029;-72
2022/10/09 06:36:02;;;;;;;6.95;2.50;;;11.10;99.90;;;;;;4999875;28;20030;-73
2022/10/09 06:38:28;;;;;;;3.92;2.50;;;11.30;99.90;;;;;;5017909;28;20030;-73
2022/10/09 06:40:54;;;;;;;7.47;2.65;;;11.40;99.90;;;;;;5018034;28;20493;-73
2022/10/09 06:43:20;;;;;;;7.57;3.10;;;11.50;99.90;;;;;;5017833;28;20033;-73
2022/10/09 06:45:45;;;;;;;10.02;2.63;;;11.70;99.90;;;;;;4999744;28;20080;-72
2022/10/09 06:48:11;;;;;;;6.00;2.53;;;11.80;99.90;;;;;;5000268;28;20026;-74
2022/10/09 06:50:37;;;;;;;6.35;2.83;;;11.90;99.90;;;;;;5017423;28;20437;-74
2022/10/09 06:53:04;;;;;;;8.50;2.17;;;12.00;99.90;;;;;;5017783;28;20466;-73
2022/10/09 06:55:30;;;;;;;4.97;2.58;;;12.20;99.90;;;;;;5017460;28;20026;-72
2022/10/09 06:57:56;;;;;;;4.57;2.33;;;12.50;99.90;;;;;;5017407;28;20030;-72
2022/10/09 07:00:22;;;;;;;5.20;2.17;;;12.60;99.90;;;;;;5017523;28;20394;-73
2022/10/09 07:02:48;;;;;;;4.55;2.08;;;12.70;99.90;;;;;;5017032;28;20030;-73
2022/10/09 07:05:14;;;;;;;7.60;2.17;;;12.80;99.90;;;;;;4999303;28;20022;-73
2022/10/09 07:07:40;;;;;;;3.75;1.77;;;13.10;99.90;;;;;;4999463;28;20117;-72
2022/10/09 07:10:07;;;;;;;3.80;1.92;;;13.30;99.90;;;;;;5017098;28;20064;-73
2022/10/09 07:12:36;;;;;;;7.10;2.67;;;13.40;99.90;;;;;;4999533;28;20029;-74
2022/10/09 07:15:04;;;;;;;7.53;2.38;;;13.50;99.90;;;;;;4999407;28;20390;-74
2022/10/09 07:17:30;;;;;;;5.80;1.92;;;13.70;99.90;;;;;;4998968;28;20046;-74
2022/10/09 07:19:55;;;;;;;6.38;2.05;;;13.80;99.90;;;;;;5016884;28;20042;-58
2022/10/09 07:22:21;;;;;;;4.57;2.10;;;14.10;99.90;;;;;;5017181;28;20037;-57
2022/10/09 07:24:47;;;;;;;6.10;2.53;;;14.40;99.90;;;;;;5016910;28;20382;-57
2022/10/09 07:27:13;;;;;;;3.45;2.08;;;14.50;99.90;;;;;;5016695;28;20029;-57
2022/10/09 07:29:39;;;;;;;4.10;2.15;;;14.70;99.90;;;;;;5016441;28;20103;-57
2022/10/09 07:32:04;;;;;;;6.05;2.00;;;14.80;99.90;;;;;;5016413;28;20061;-65
2022/10/09 07:34:30;;;;;;;4.43;2.40;;;14.90;99.90;;;;;;5016883;28;20034;-66
2022/10/09 07:36:56;;;;;;;4.80;1.98;;;15.20;99.90;;;;;;5016853;28;20104;-64
2022/10/09 07:39:21;;;;;;;3.95;2.15;;;15.30;99.90;;;;;;5016374;28;20121;-65
2022/10/09 07:41:50;;;;;;;4.00;1.70;;;15.50;99.90;;;;;;5016126;28;20026;-65
2022/10/09 07:44:16;;;;;;;3.03;1.38;;;16.10;99.90;;;;;;5016489;28;20030;-73
2022/10/09 07:46:42;;;;;;;2.40;1.50;;;16.30;99.90;;;;;;5015705;28;20026;-74
2022/10/09 07:49:08;;;;;;;3.85;1.80;;;16.70;98.60;;;;;;4998657;28;20489;-73
2022/10/09 07:51:34;;;;;;;4.63;1.80;;;16.80;97.70;;;;;;5015913;28;20144;-74
2022/10/09 07:54:01;;;;;;;6.40;2.25;;;16.90;97.10;;;;;;5016127;28;20022;-73
2022/10/09 07:56:32;;;;;;;4.95;1.60;;;16.90;96.40;;;;;;4998553;28;20086;-74
2022/10/09 07:59:03;;;;;;;7.05;2.05;;;16.80;95.50;;;;;;4998444;28;20125;-74
2022/10/09 08:01:30;;;;;;;5.72;1.60;;;16.90;95.60;;;;;;4998633;28;20026;-75
2022/10/09 08:03:56;;;;;;;2.70;1.48;;;17.10;95.20;;;;;;4998666;28;20466;-75
2022/10/09 08:06:23;;;;;;;3.35;1.63;;;17.00;95.20;;;;;;5015725;28;20529;-74
2022/10/09 08:08:50;;;;;;;6.05;1.73;;;17.00;95.10;;;;;;5016470;28;20030;-76
2022/10/09 08:11:17;;;;;;;6.85;1.70;;;16.90;94.80;;;;;;5015950;28;20061;-75
2022/10/09 08:13:44;;;;;;;4.82;1.88;;;16.80;95.40;;;;;;5015546;28;20048;-74
2022/10/09 08:16:10;;;;;;;3.70;1.40;;;16.80;95.30;;;;;;5015591;28;20022;-75
2022/10/09 08:18:36;;;;;;;3.67;1.70;;;16.70;94.90;;;;;;5015713;28;20033;-74
2022/10/09 08:21:11;;;;;;;7.20;1.52;;;16.60;95.60;;;;;;4998238;28;20459;-75
2022/10/09 08:23:37;;;;;;;5.75;1.80;;;16.70;95.00;;;;;;4998168;28;20105;-75
2022/10/09 08:26:04;;;;;;;2.70;1.48;;;16.70;94.90;;;;;;4998108;28;20030;-75
2022/10/09 08:28:30;;;;;;;5.97;1.40;;;16.80;94.70;;;;;;5015641;28;20033;-75
2022/10/09 08:30:55;;;;;;;5.53;1.25;;;16.90;93.80;;;;;;4997747;28;20088;-75
2022/10/09 08:33:22;;;;;;;2.92;1.15;;;16.80;93.40;;;;;;5015851;28;20021;-75
2022/10/09 08:35:52;;;;;;;4.90;1.15;;;16.80;93.40;;;;;;4997863;28;20033;-74
2022/10/09 08:38:17;;;;;;;4.70;1.42;;;17.10;92.60;;;;;;4997875;28;20377;-74
2022/10/09 08:40:47;;;;;;;4.22;1.20;;;17.30;92.40;;;;;;4997740;28;20034;-71
2022/10/09 08:43:14;;;;;;;;;;;17.40;91.60;;;;;;5016089;28;20084;-74
2022/10/09 08:45:43;;;;;;;2.42;1.30;;;18.10;91.10;;;;;;4997634;28;20039;-73
2022/10/09 08:48:16;;;;;;;4.97;1.58;;;18.60;89.20;;;;;;4997448;28;20079;-73
2022/10/09 08:50:48;;;;;;;3.28;1.17;;;18.70;87.00;;;;;;5015371;28;20030;-74
2022/10/09 08:53:26;;;;;;;2.08;0.95;;;18.60;86.00;;;;;;5015227;28;20018;-74
2022/10/09 08:55:57;;;;;;;2.95;1.20;;;18.70;86.70;;;;;;5014918;28;20474;-74
2022/10/09 08:58:35;;;;;;;5.28;1.75;;;18.60;85.00;;;;;;5013860;28;20092;-74
2022/10/09 09:01:33;;;;;;;2.63;1.10;;;19.20;83.80;;;;;;5015172;28;20108;-74
2022/10/09 09:04:24;;;;;;;3.53;1.37;;;19.90;80.00;;;;;;4993545;28;20629;-74
2022/10/09 09:07:09;;;;;;;6.88;1.67;;;20.30;75.90;;;;;;4997753;28;20439;-74
2022/10/09 09:09:44;;;;;;;4.07;1.70;;;19.60;76.60;;;;;;5015023;28;20120;-74
2022/10/09 09:12:33;;;;;;;5.60;1.05;;;19.80;75.20;;;;;;5014605;28;20026;-74
2022/10/09 09:15:28;;;;;;;4.30;1.00;;;20.10;74.90;;;;;;5014799;28;20018;-74
2022/10/09 09:18:25;;;;;;;3.50;0.98;;;20.10;72.30;;;;;;4997020;28;20045;-74
2022/10/09 09:20:52;;;;;;;2.30;1.27;;;20.20;72.30;;;;;;5014898;28;20038;-74
2022/10/09 09:23:25;;;;;;;3.70;1.23;;;20.60;72.40;;;;;;4997411;28;20057;-73
2022/10/09 09:25:50;;;;;;;4.05;1.00;;;21.10;69.60;;;;;;5014686;28;20048;-74
2022/10/09 09:28:21;;;;;;;3.28;1.00;;;21.40;69.50;;;;;;4996902;28;20436;-73
2022/10/09 09:30:54;;;;;;;4.03;0.90;;;21.30;68.50;;;;;;5014882;28;20076;-73
2022/10/09 09:33:28;;;;;;;4.57;1.23;;;21.60;66.70;;;;;;5014547;28;20025;-73
2022/10/09 09:36:09;;;;;;;4.28;1.15;;;21.90;64.30;;;;;;5014757;28;20026;-74
2022/10/09 09:38:35;;;;;;;2.33;0.98;;;22.40;63.60;;;;;;5014088;28;20437;-74
2022/10/09 09:41:03;;;;;;;4.03;1.05;;;23.10;60.90;;;;;;5014342;28;20509;-74
2022/10/09 09:43:29;;;;;;;2.13;1.42;;;22.20;61.60;;;;;;5014322;28;20069;-74
2022/10/09 09:45:57;;;;;;;2.60;0.90;;;22.10;62.40;;;;;;4996600;28;20137;-74
2022/10/09 09:48:42;;;;;;;4.77;1.07;;;22.30;61.70;;;;;;4996727;28;20060;-74
2022/10/09 09:51:20;;;;;;;1.23;0.80;;;22.50;60.80;;;;;;4996908;28;20030;-74
2022/10/09 09:53:52;;;;;;;4.30;0.90;;;23.20;59.30;;;;;;5013935;28;20382;-74
2022/10/09 09:56:18;;;;;;;6.75;1.08;;;23.50;57.40;;;;;;5014225;28;20026;-74
2022/10/09 09:58:54;;;;;;;2.05;0.90;;;23.70;55.40;;;;;;5014497;28;20144;-74
2022/10/09 10:01:26;;;;;;;1.90;0.80;;;23.90;54.00;;;;;;5014368;28;20034;-74
2022/10/09 10:03:54;;;;;;;1.92;0.93;;;23.90;53.80;;;;;;5013756;28;20378;-75
2022/10/09 10:06:42;;;;;;;2.75;0.98;;;24.10;54.00;;;;;;5013803;28;20472;-74
2022/10/09 10:09:16;;;;;;;3.00;0.90;;;23.40;54.30;;;;;;5013285;28;20072;-74
2022/10/09 10:12:02;;;;;;;2.47;1.20;;;22.30;56.50;;;;;;4996504;28;20265;-74
2022/10/09 10:14:30;;;;;;;4.50;0.85;;;21.80;57.10;;;;;;5013924;28;20424;-74
2022/10/09 10:16:57;;;;;;;4.20;1.00;;;21.50;58.00;;;;;;5013937;28;20065;-74
2022/10/09 10:19:29;;;;;;;2.63;0.80;;;21.80;58.00;;;;;;5014001;28;20058;-74
2022/10/09 10:21:59;;;;;;;4.22;1.05;;;22.00;57.70;;;;;;5013599;28;20054;-74
2022/10/09 10:24:40;;;;;;;2.95;1.10;;;22.00;57.20;;;;;;5014565;28;20067;-74
2022/10/09 10:27:11;;;;;;;1.65;0.68;;;21.60;57.60;;;;;;4995907;28;20029;-74
2022/10/09 10:29:48;;;;;;;3.20;0.90;;;21.40;58.60;;;;;;5013640;28;20054;-74
2022/10/09 10:32:22;;;;;;;4.97;0.90;;;22.00;57.50;;;;;;5013798;28;20026;-73
2022/10/09 10:35:03;;;;;;;3.00;1.05;;;22.20;57.80;;;;;;4996090;28;20026;-74
2022/10/09 10:38:17;;;;;;;4.45;0.95;;;22.80;56.70;;;;;;5013807;28;20552;-74
2022/10/09 10:41:02;;;;;;;2.30;1.00;;;23.50;54.00;;;;;;4996072;28;20121;-74
2022/10/09 10:43:30;;;;;;;4.32;1.67;;;23.80;53.60;;;;;;4996527;28;20113;-74
2022/10/09 10:46:18;;;;;;;3.70;0.90;;;24.00;52.60;;;;;;5013691;28;20041;-74
2022/10/09 10:48:46;;;;;;;1.92;0.85;;;23.90;52.30;;;;;;5014037;28;20030;-74
2022/10/09 10:51:41;;;;;;;2.42;0.60;;;23.70;51.90;;;;;;5013636;28;20034;-74
2022/10/09 10:54:12;;;;;;;0.90;0.50;;;23.70;51.70;;;;;;5013305;28;20030;-74
2022/10/09 10:56:46;;;;;;;3.28;0.63;;;23.80;51.90;;;;;;5013514;28;20022;-74
2022/10/09 11:00:04;;;;;;;2.22;0.70;;;23.90;51.70;;;;;;4995844;28;20113;-74
2022/10/09 11:02:48;;;;;;;4.32;1.13;;;24.30;51.40;;;;;;4994776;28;20041;-74
2022/10/09 11:05:42;;;;;;;1.60;0.50;;;24.70;49.40;;;;;;4995932;28;20026;-73
2022/10/09 11:08:20;;;;;;;1.58;0.82;;;24.20;50.00;;;;;;4986701;28;20121;-74
2022/10/09 11:11:06;;;;;;;2.28;1.00;;;23.40;50.90;;;;;;4995936;28;20377;-74
2022/10/09 11:13:52;;;;;;;1.95;0.80;;;23.00;51.40;;;;;;4996761;28;20023;-74
2022/10/09 11:16:58;;;;;;;3.20;0.70;;;23.60;51.30;;;;;;4995632;28;20026;-75
2022/10/09 11:19:36;;;;;;;4.43;1.55;;;24.00;50.70;;;;;;4914407;29;20121;-74
2022/10/09 11:22:36;;;;;;;2.50;1.13;;;24.40;50.00;;;;;;4990486;28;20042;-74
2022/10/09 11:25:27;;;;;;;2.70;0.70;;;24.90;47.90;;;;;;4961987;28;20041;-74
2022/10/09 11:27:58;;;;;;;3.22;0.73;;;24.70;48.10;;;;;;5016781;28;20105;-74
2022/10/09 11:30:29;;;;;;;3.70;0.70;;;25.40;47.50;;;;;;5016979;28;20037;-74
2022/10/09 11:32:58;;;;;;;2.72;0.55;;;25.90;47.50;;;;;;4999454;28;20470;-74
2022/10/09 11:35:30;;;;;;;1.25;0.57;;;25.90;44.80;;;;;;5016743;28;20057;-74
2022/10/09 11:37:55;;;;;;;3.80;0.90;;;25.20;46.00;;;;;;5016938;28;20116;-74
2022/10/09 11:40:25;;;;;;;2.05;0.60;;;25.00;46.70;;;;;;5016431;28;20542;-74
2022/10/09 11:43:29;;;;;;;2.58;0.50;;;24.50;47.40;;;;;;5016506;28;20030;-74
2022/10/09 11:46:00;;;;;;;3.28;0.60;;;24.20;48.10;;;;;;4998927;28;20026;-74
2022/10/09 11:48:31;;;;;;;0.73;0.50;;;24.20;47.30;;;;;;4998783;28;20378;-74
2022/10/09 11:51:05;;;;;;;3.88;0.50;;;24.50;46.10;;;;;;5016152;28;20033;-74
2022/10/09 11:53:33;;;;;;;0.80;0.50;;;24.80;43.10;;;;;;4999008;28;20022;-74
2022/10/09 11:56:07;;;;;;;2.35;0.50;;;24.40;43.30;;;;;;4998842;28;20405;-74
2022/10/09 11:58:34;;;;;;;2.17;0.80;;;23.80;44.70;;;;;;5016146;28;20084;-74
2022/10/09 12:01:34;;;;;;;1.92;0.65;;;23.70;45.30;;;;;;4998487;28;20124;-74
2022/10/09 12:04:12;;;;;;;2.63;0.70;;;24.20;44.60;;;;;;4988172;28;20038;-74
2022/10/09 12:07:24;;;;;;;0.88;0.50;;;24.60;43.10;;;;;;5015839;28;20359;-74
2022/10/09 12:10:18;;;;;;;3.05;0.50;;;24.60;43.80;;;;;;4917365;29;20028;-74
2022/10/09 12:12:54;;;;;;;4.13;0.60;;;24.20;45.00;;;;;;5015664;28;20030;-58
2022/10/09 12:15:26;;;;;;;1.80;0.50;;;24.20;45.20;;;;;;5016158;28;20030;-58
2022/10/09 12:17:51;;;;;;;2.60;0.70;;;23.90;46.20;;;;;;5015900;28;20042;-58
2022/10/09 12:20:24;;;;;;;2.28;0.70;;;23.30;46.50;;;;;;5015743;28;20038;-58
2022/10/09 12:22:55;;;;;;;3.40;0.80;;;22.80;47.80;;;;;;5015511;28;20033;-66
2022/10/09 12:25:39;;;;;;;1.85;0.75;;;23.20;47.60;;;;;;5015431;28;20433;-66
2022/10/09 12:28:13;;;;;;;2.08;0.70;;;23.60;47.60;;;;;;4998332;28;20030;-67
2022/10/09 12:30:40;;;;;;;3.60;0.88;;;23.70;47.10;;;;;;5016142;28;20034;-66
2022/10/09 12:33:24;;;;;;;2.10;0.43;;;23.80;47.00;;;;;;4997645;28;20467;-67
2022/10/09 12:36:10;;;;;;;2.20;0.45;;;23.80;46.10;;;;;;5015653;28;20022;-66
2022/10/09 12:38:36;;;;;;;5.30;1.15;;;22.50;48.00;;;;;;5015619;28;20475;-57
2022/10/09 12:41:06;;;;;;;4.25;0.50;;;22.30;49.10;;;;;;5015193;28;20053;-57
2022/10/09 12:43:33;;;;;;;3.78;1.10;;;22.00;49.40;;;;;;5015403;28;20022;-57
2022/10/09 12:45:59;;;;;;;3.00;0.40;;;22.20;48.60;;;;;;5015138;28;20109;-81
2022/10/09 12:48:26;;;;;;;2.03;0.55;;;21.40;49.20;;;;;;4997278;28;20038;-78
2022/10/09 12:50:52;;;;;;;3.65;0.68;;;21.20;50.20;;;;;;4997672;28;20065;-76
2022/10/09 12:53:21;;;;;;;3.70;0.80;;;20.90;51.60;;;;;;4997661;28;20033;-78
2022/10/09 12:55:59;;;;;;;4.90;0.90;;;21.10;51.50;;;;;;4997716;28;20466;-81
2022/10/09 12:58:35;;;;;;;2.28;0.70;;;21.90;51.10;;;;;;4998732;28;20060;-83
2022/10/09 13:01:04;;;;;;;4.88;0.80;;;23.10;48.70;;;;;;4998541;28;20041;-81
2022/10/09 13:03:42;;;;;;;1.90;0.80;;;23.30;48.00;;;;;;4998017;28;20026;-78
2022/10/09 13:06:20;;;;;;;2.42;0.88;;;23.10;47.80;;;;;;4997807;28;20026;-79
2022/10/09 13:08:56;;;;;;;1.23;0.40;;;24.00;46.70;;;;;;4997898;28;20026;-79
2022/10/09 13:11:53;;;;;;;3.28;0.90;;;24.30;45.90;;;;;;5015109;28;20033;-76